sensor_id;sensor_type;location;lat;lon;timestamp;temperature;humidity
7658;DHT22;8462;53.156;8.220;2022-09-20T00:01:44;13.60;86.40
7658;DHT22;8462;53.156;8.220;2022-09-20T00:04:11;13.60;86.10
7658;DHT22;8462;53.156;8.220;2022-09-20T00:06:38;13.60;85.80
7658;DHT22;8462;53.156;8.220;2022-09-20T00:09:05;13.50;85.50
7658;DHT22;8462;53.156;8.220;2022-09-20T00:11:33;13.50;85.50
7658;DHT22;8462;53.156;8.220;2022-09-20T00:14:03;13.40;85.40
7658;DHT22;8462;53.156;8.220;2022-09-20T00:16:34;13.40;85.50
7658;DHT22;8462;53.156;8.220;2022-09-20T00:19:03;13.30;85.50
7658;DHT22;8462;53.156;8.220;2022-09-20T00:21:33;13.20;85.70
7658;DHT22;8462;53.156;8.220;2022-09-20T00:24:01;13.20;86.00
7658;DHT22;8462;53.156;8.220;2022-09-20T00:26:28;13.10;86.10
7658;DHT22;8462;53.156;8.220;2022-09-20T00:28:57;13.00;86.30
7658;DHT22;8462;53.156;8.220;2022-09-20T00:31:24;13.00;86.40
7658;DHT22;8462;53.156;8.220;2022-09-20T00:33:54;13.00;86.50
7658;DHT22;8462;53.156;8.220;2022-09-20T00:36:40;13.00;86.70
7658;DHT22;8462;53.156;8.220;2022-09-20T00:39:10;12.90;86.90
7658;DHT22;8462;53.156;8.220;2022-09-20T00:41:37;12.90;88.10
7658;DHT22;8462;53.156;8.220;2022-09-20T00:47:05;12.80;87.20
7658;DHT22;8462;53.156;8.220;2022-09-20T00:49:37;12.80;87.10
7658;DHT22;8462;53.156;8.220;2022-09-20T00:52:04;12.80;87.30
7658;DHT22;8462;53.156;8.220;2022-09-20T00:54:31;12.80;87.30
7658;DHT22;8462;53.156;8.220;2022-09-20T00:56:59;12.80;87.80
7658;DHT22;8462;53.156;8.220;2022-09-20T00:59:28;12.90;88.20
7658;DHT22;8462;53.156;8.220;2022-09-20T01:01:58;12.90;87.80
7658;DHT22;8462;53.156;8.220;2022-09-20T01:04:27;12.90;87.20
7658;DHT22;8462;53.156;8.220;2022-09-20T01:07:00;12.90;86.90
7658;DHT22;8462;53.156;8.220;2022-09-20T01:09:28;12.80;87.00
7658;DHT22;8462;53.156;8.220;2022-09-20T01:11:55;12.80;87.60
7658;DHT22;8462;53.156;8.220;2022-09-20T01:14:24;12.80;87.30
7658;DHT22;8462;53.156;8.220;2022-09-20T01:16:53;12.80;87.20
7658;DHT22;8462;53.156;8.220;2022-09-20T01:19:27;12.70;86.80
7658;DHT22;8462;53.156;8.220;2022-09-20T01:22:01;12.70;86.80
7658;DHT22;8462;53.156;8.220;2022-09-20T01:24:35;12.60;86.80
7658;DHT22;8462;53.156;8.220;2022-09-20T01:27:13;12.60;87.30
7658;DHT22;8462;53.156;8.220;2022-09-20T01:29:58;12.50;87.20
7658;DHT22;8462;53.156;8.220;2022-09-20T01:32:35;12.50;87.20
7658;DHT22;8462;53.156;8.220;2022-09-20T01:35:07;12.40;87.20
7658;DHT22;8462;53.156;8.220;2022-09-20T01:37:45;12.40;87.30
7658;DHT22;8462;53.156;8.220;2022-09-20T01:40:19;12.40;87.50
7658;DHT22;8462;53.156;8.220;2022-09-20T01:42:58;12.30;87.50
7658;DHT22;8462;53.156;8.220;2022-09-20T01:45:31;12.30;87.50
7658;DHT22;8462;53.156;8.220;2022-09-20T01:48:05;12.20;87.40
7658;DHT22;8462;53.156;8.220;2022-09-20T01:50:38;12.20;87.50
7658;DHT22;8462;53.156;8.220;2022-09-20T01:53:39;12.20;87.40
7658;DHT22;8462;53.156;8.220;2022-09-20T01:56:37;12.20;87.50
7658;DHT22;8462;53.156;8.220;2022-09-20T01:59:22;12.20;87.60
7658;DHT22;8462;53.156;8.220;2022-09-20T02:02:08;12.10;87.70
7658;DHT22;8462;53.156;8.220;2022-09-20T02:05:08;12.10;87.70
7658;DHT22;8462;53.156;8.220;2022-09-20T02:07:57;12.10;87.60
7658;DHT22;8462;53.156;8.220;2022-09-20T02:10:45;12.10;87.70
7658;DHT22;8462;53.156;8.220;2022-09-20T02:13:26;12.10;87.70
7658;DHT22;8462;53.156;8.220;2022-09-20T02:16:21;12.10;88.00
7658;DHT22;8462;53.156;8.220;2022-09-20T02:19:17;12.10;88.10
7658;DHT22;8462;53.156;8.220;2022-09-20T02:21:49;12.20;88.70
7658;DHT22;8462;53.156;8.220;2022-09-20T02:24:25;12.20;88.60
7658;DHT22;8462;53.156;8.220;2022-09-20T02:27:06;12.20;88.40
7658;DHT22;8462;53.156;8.220;2022-09-20T02:29:45;12.30;87.90
7658;DHT22;8462;53.156;8.220;2022-09-20T02:32:37;12.30;87.40
7658;DHT22;8462;53.156;8.220;2022-09-20T02:35:31;12.20;87.30
7658;DHT22;8462;53.156;8.220;2022-09-20T02:38:14;12.20;87.30
7658;DHT22;8462;53.156;8.220;2022-09-20T02:40:55;12.10;87.00
7658;DHT22;8462;53.156;8.220;2022-09-20T02:43:31;12.10;87.00
7658;DHT22;8462;53.156;8.220;2022-09-20T02:46:02;12.10;87.20
7658;DHT22;8462;53.156;8.220;2022-09-20T02:48:37;12.00;87.40
7658;DHT22;8462;53.156;8.220;2022-09-20T02:51:15;12.00;87.50
7658;DHT22;8462;53.156;8.220;2022-09-20T02:53:47;11.90;87.50
7658;DHT22;8462;53.156;8.220;2022-09-20T02:56:22;11.90;88.10
7658;DHT22;8462;53.156;8.220;2022-09-20T02:58:59;11.90;88.40
7658;DHT22;8462;53.156;8.220;2022-09-20T03:01:34;11.90;89.00
7658;DHT22;8462;53.156;8.220;2022-09-20T03:04:17;12.00;89.20
7658;DHT22;8462;53.156;8.220;2022-09-20T03:06:52;12.00;89.30
7658;DHT22;8462;53.156;8.220;2022-09-20T03:09:28;12.10;89.10
7658;DHT22;8462;53.156;8.220;2022-09-20T03:12:05;12.20;89.10
7658;DHT22;8462;53.156;8.220;2022-09-20T03:14:37;12.20;88.90
7658;DHT22;8462;53.156;8.220;2022-09-20T03:17:16;12.30;88.90
7658;DHT22;8462;53.156;8.220;2022-09-20T03:19:58;12.30;88.90
7658;DHT22;8462;53.156;8.220;2022-09-20T03:22:38;12.40;88.70
7658;DHT22;8462;53.156;8.220;2022-09-20T03:25:29;12.40;88.90
7658;DHT22;8462;53.156;8.220;2022-09-20T03:28:10;12.50;88.70
7658;DHT22;8462;53.156;8.220;2022-09-20T03:30:45;12.60;88.70
7658;DHT22;8462;53.156;8.220;2022-09-20T03:33:21;12.60;88.50
7658;DHT22;8462;53.156;8.220;2022-09-20T03:36:00;12.70;88.30
7658;DHT22;8462;53.156;8.220;2022-09-20T03:38:44;12.80;88.20
7658;DHT22;8462;53.156;8.220;2022-09-20T03:44:33;12.80;87.70
7658;DHT22;8462;53.156;8.220;2022-09-20T03:47:16;12.80;87.80
7658;DHT22;8462;53.156;8.220;2022-09-20T03:52:59;12.80;87.80
7658;DHT22;8462;53.156;8.220;2022-09-20T03:55:57;12.80;88.10
7658;DHT22;8462;53.156;8.220;2022-09-20T03:58:43;12.80;88.30
7658;DHT22;8462;53.156;8.220;2022-09-20T04:01:35;12.80;88.20
7658;DHT22;8462;53.156;8.220;2022-09-20T04:04:12;12.90;88.30
7658;DHT22;8462;53.156;8.220;2022-09-20T04:06:52;12.90;88.00
7658;DHT22;8462;53.156;8.220;2022-09-20T04:09:49;12.90;87.90
7658;DHT22;8462;53.156;8.220;2022-09-20T04:12:27;13.00;87.90
7658;DHT22;8462;53.156;8.220;2022-09-20T04:15:04;13.00;87.60
7658;DHT22;8462;53.156;8.220;2022-09-20T04:17:41;13.00;87.70
7658;DHT22;8462;53.156;8.220;2022-09-20T04:20:16;13.00;87.80
7658;DHT22;8462;53.156;8.220;2022-09-20T04:22:49;13.00;87.60
7658;DHT22;8462;53.156;8.220;2022-09-20T04:25:20;13.10;87.60
7658;DHT22;8462;53.156;8.220;2022-09-20T04:27:50;13.00;87.40
7658;DHT22;8462;53.156;8.220;2022-09-20T04:30:24;13.00;87.30
7658;DHT22;8462;53.156;8.220;2022-09-20T04:33:07;13.00;86.90
7658;DHT22;8462;53.156;8.220;2022-09-20T04:35:42;12.90;86.90
7658;DHT22;8462;53.156;8.220;2022-09-20T04:38:29;12.90;87.00
7658;DHT22;8462;53.156;8.220;2022-09-20T04:41:13;12.80;87.30
7658;DHT22;8462;53.156;8.220;2022-09-20T04:44:10;12.80;87.40
7658;DHT22;8462;53.156;8.220;2022-09-20T04:47:15;12.80;87.30
7658;DHT22;8462;53.156;8.220;2022-09-20T04:50:30;12.80;87.60
7658;DHT22;8462;53.156;8.220;2022-09-20T04:53:33;12.80;87.50
7658;DHT22;8462;53.156;8.220;2022-09-20T04:56:12;12.70;87.70
7658;DHT22;8462;53.156;8.220;2022-09-20T04:59:04;12.60;87.60
7658;DHT22;8462;53.156;8.220;2022-09-20T05:05:11;12.60;87.70
7658;DHT22;8462;53.156;8.220;2022-09-20T05:14:24;12.50;88.10
7658;DHT22;8462;53.156;8.220;2022-09-20T05:17:05;12.40;87.60
7658;DHT22;8462;53.156;8.220;2022-09-20T05:19:41;12.40;87.40
7658;DHT22;8462;53.156;8.220;2022-09-20T05:22:33;12.40;87.60
7658;DHT22;8462;53.156;8.220;2022-09-20T05:25:45;12.40;87.90
7658;DHT22;8462;53.156;8.220;2022-09-20T05:28:22;12.30;88.00
7658;DHT22;8462;53.156;8.220;2022-09-20T05:30:57;12.30;88.30
7658;DHT22;8462;53.156;8.220;2022-09-20T05:33:29;12.30;88.40
7658;DHT22;8462;53.156;8.220;2022-09-20T05:36:06;12.30;88.60
7658;DHT22;8462;53.156;8.220;2022-09-20T05:38:43;12.30;88.90
7658;DHT22;8462;53.156;8.220;2022-09-20T05:41:18;12.40;89.30
7658;DHT22;8462;53.156;8.220;2022-09-20T05:43:54;12.50;89.30
7658;DHT22;8462;53.156;8.220;2022-09-20T05:46:33;12.60;89.10
7658;DHT22;8462;53.156;8.220;2022-09-20T05:49:09;12.70;89.10
7658;DHT22;8462;53.156;8.220;2022-09-20T05:52:04;12.80;89.10
7658;DHT22;8462;53.156;8.220;2022-09-20T05:55:03;12.90;88.80
7658;DHT22;8462;53.156;8.220;2022-09-20T05:57:43;13.10;88.80
7658;DHT22;8462;53.156;8.220;2022-09-20T06:00:15;13.40;89.00
7658;DHT22;8462;53.156;8.220;2022-09-20T06:02:52;13.60;87.80
7658;DHT22;8462;53.156;8.220;2022-09-20T06:05:31;13.90;88.50
7658;DHT22;8462;53.156;8.220;2022-09-20T06:08:12;14.30;88.10
7658;DHT22;8462;53.156;8.220;2022-09-20T06:14:00;16.00;84.90
7658;DHT22;8462;53.156;8.220;2022-09-20T06:16:41;16.80;81.60
7658;DHT22;8462;53.156;8.220;2022-09-20T06:19:27;17.60;79.00
7658;DHT22;8462;53.156;8.220;2022-09-20T06:22:01;18.50;76.00
7658;DHT22;8462;53.156;8.220;2022-09-20T06:24:35;19.00;72.90
7658;DHT22;8462;53.156;8.220;2022-09-20T06:27:07;19.60;71.80
7658;DHT22;8462;53.156;8.220;2022-09-20T06:29:39;20.10;69.90
7658;DHT22;8462;53.156;8.220;2022-09-20T06:32:06;20.60;67.60
7658;DHT22;8462;53.156;8.220;2022-09-20T06:34:35;20.90;66.00
7658;DHT22;8462;53.156;8.220;2022-09-20T06:37:09;21.10;64.40
7658;DHT22;8462;53.156;8.220;2022-09-20T06:40:00;20.90;62.60
7658;DHT22;8462;53.156;8.220;2022-09-20T06:42:46;20.40;62.30
7658;DHT22;8462;53.156;8.220;2022-09-20T06:45:13;20.00;63.90
7658;DHT22;8462;53.156;8.220;2022-09-20T06:47:40;19.50;64.90
7658;DHT22;8462;53.156;8.220;2022-09-20T06:50:14;18.90;65.60
7658;DHT22;8462;53.156;8.220;2022-09-20T06:52:49;18.40;67.40
7658;DHT22;8462;53.156;8.220;2022-09-20T06:55:21;17.90;68.40
7658;DHT22;8462;53.156;8.220;2022-09-20T06:57:51;17.50;69.80
7658;DHT22;8462;53.156;8.220;2022-09-20T07:00:18;17.10;71.00
7658;DHT22;8462;53.156;8.220;2022-09-20T07:02:45;16.70;71.60
7658;DHT22;8462;53.156;8.220;2022-09-20T07:05:15;16.40;72.90
7658;DHT22;8462;53.156;8.220;2022-09-20T07:07:46;16.10;74.10
7658;DHT22;8462;53.156;8.220;2022-09-20T07:10:13;15.90;74.50
7658;DHT22;8462;53.156;8.220;2022-09-20T07:12:41;15.70;75.70
7658;DHT22;8462;53.156;8.220;2022-09-20T07:15:09;15.50;76.60
7658;DHT22;8462;53.156;8.220;2022-09-20T07:17:36;15.40;77.10
7658;DHT22;8462;53.156;8.220;2022-09-20T07:20:04;15.30;77.60
7658;DHT22;8462;53.156;8.220;2022-09-20T07:22:33;15.40;78.30
7658;DHT22;8462;53.156;8.220;2022-09-20T07:25:00;15.40;78.50
7658;DHT22;8462;53.156;8.220;2022-09-20T07:27:28;15.50;78.60
7658;DHT22;8462;53.156;8.220;2022-09-20T07:29:54;15.60;78.60
7658;DHT22;8462;53.156;8.220;2022-09-20T07:32:21;15.70;78.70
7658;DHT22;8462;53.156;8.220;2022-09-20T07:34:48;15.70;78.30
7658;DHT22;8462;53.156;8.220;2022-09-20T07:37:17;15.80;78.40
7658;DHT22;8462;53.156;8.220;2022-09-20T07:39:46;16.00;78.20
7658;DHT22;8462;53.156;8.220;2022-09-20T07:42:13;16.10;78.50
7658;DHT22;8462;53.156;8.220;2022-09-20T07:44:40;16.30;78.70
7658;DHT22;8462;53.156;8.220;2022-09-20T07:47:08;16.40;77.80
7658;DHT22;8462;53.156;8.220;2022-09-20T07:49:36;16.50;77.40
7658;DHT22;8462;53.156;8.220;2022-09-20T07:52:03;16.50;76.40
7658;DHT22;8462;53.156;8.220;2022-09-20T07:54:30;16.60;76.90
7658;DHT22;8462;53.156;8.220;2022-09-20T07:56:58;16.70;76.80
7658;DHT22;8462;53.156;8.220;2022-09-20T07:59:25;16.70;76.50
7658;DHT22;8462;53.156;8.220;2022-09-20T08:01:53;16.80;76.60
7658;DHT22;8462;53.156;8.220;2022-09-20T08:04:22;16.90;75.60
7658;DHT22;8462;53.156;8.220;2022-09-20T08:06:49;16.90;75.40
7658;DHT22;8462;53.156;8.220;2022-09-20T08:09:16;16.90;74.70
7658;DHT22;8462;53.156;8.220;2022-09-20T08:11:44;17.00;75.10
7658;DHT22;8462;53.156;8.220;2022-09-20T08:14:15;17.10;75.60
7658;DHT22;8462;53.156;8.220;2022-09-20T08:16:43;17.20;74.70
7658;DHT22;8462;53.156;8.220;2022-09-20T08:19:15;17.30;75.20
7658;DHT22;8462;53.156;8.220;2022-09-20T08:21:42;17.20;74.70
7658;DHT22;8462;53.156;8.220;2022-09-20T08:24:09;17.30;75.00
7658;DHT22;8462;53.156;8.220;2022-09-20T08:26:37;17.40;73.70
7658;DHT22;8462;53.156;8.220;2022-09-20T08:29:04;17.50;73.60
7658;DHT22;8462;53.156;8.220;2022-09-20T08:31:36;17.50;73.10
7658;DHT22;8462;53.156;8.220;2022-09-20T08:34:04;17.60;73.20
7658;DHT22;8462;53.156;8.220;2022-09-20T08:36:33;17.80;72.40
7658;DHT22;8462;53.156;8.220;2022-09-20T08:39:00;17.90;72.20
7658;DHT22;8462;53.156;8.220;2022-09-20T08:41:31;18.10;72.00
7658;DHT22;8462;53.156;8.220;2022-09-20T08:44:02;18.40;71.10
7658;DHT22;8462;53.156;8.220;2022-09-20T08:46:34;18.50;70.30
7658;DHT22;8462;53.156;8.220;2022-09-20T08:49:03;18.50;69.60
7658;DHT22;8462;53.156;8.220;2022-09-20T08:51:32;18.50;68.10
7658;DHT22;8462;53.156;8.220;2022-09-20T08:54:00;18.60;68.60
7658;DHT22;8462;53.156;8.220;2022-09-20T08:56:33;18.70;67.60
7658;DHT22;8462;53.156;8.220;2022-09-20T08:59:01;18.80;66.70
7658;DHT22;8462;53.156;8.220;2022-09-20T09:01:28;19.00;66.90
7658;DHT22;8462;53.156;8.220;2022-09-20T09:04:11;19.10;65.50
7658;DHT22;8462;53.156;8.220;2022-09-20T09:06:39;19.20;66.20
7658;DHT22;8462;53.156;8.220;2022-09-20T09:09:06;19.20;65.00
7658;DHT22;8462;53.156;8.220;2022-09-20T09:11:33;19.10;65.30
7658;DHT22;8462;53.156;8.220;2022-09-20T09:14:03;19.00;66.00
7658;DHT22;8462;53.156;8.220;2022-09-20T09:16:50;19.00;65.30
7658;DHT22;8462;53.156;8.220;2022-09-20T09:19:28;18.90;66.70
7658;DHT22;8462;53.156;8.220;2022-09-20T09:21:57;18.80;66.40
7658;DHT22;8462;53.156;8.220;2022-09-20T09:24:27;18.70;67.00
7658;DHT22;8462;53.156;8.220;2022-09-20T09:27:06;18.60;66.10
7658;DHT22;8462;53.156;8.220;2022-09-20T09:29:34;18.60;66.90
7658;DHT22;8462;53.156;8.220;2022-09-20T09:32:21;18.60;66.10
7658;DHT22;8462;53.156;8.220;2022-09-20T09:34:51;18.60;65.70
7658;DHT22;8462;53.156;8.220;2022-09-20T09:37:27;18.60;65.70
7658;DHT22;8462;53.156;8.220;2022-09-20T09:40:10;18.60;65.90
7658;DHT22;8462;53.156;8.220;2022-09-20T09:42:47;18.60;65.70
7658;DHT22;8462;53.156;8.220;2022-09-20T09:45:28;18.70;66.30
7658;DHT22;8462;53.156;8.220;2022-09-20T09:47:59;18.80;64.80
7658;DHT22;8462;53.156;8.220;2022-09-20T09:50:30;18.70;64.30
7658;DHT22;8462;53.156;8.220;2022-09-20T09:53:00;18.80;65.30
7658;DHT22;8462;53.156;8.220;2022-09-20T09:55:41;18.90;64.70
7658;DHT22;8462;53.156;8.220;2022-09-20T09:58:17;19.00;64.70
7658;DHT22;8462;53.156;8.220;2022-09-20T10:00:50;18.90;63.20
7658;DHT22;8462;53.156;8.220;2022-09-20T10:03:30;18.90;63.90
7658;DHT22;8462;53.156;8.220;2022-09-20T10:06:10;19.00;65.00
7658;DHT22;8462;53.156;8.220;2022-09-20T10:08:47;19.10;63.60
7658;DHT22;8462;53.156;8.220;2022-09-20T10:11:27;19.30;63.00
7658;DHT22;8462;53.156;8.220;2022-09-20T10:14:05;19.50;63.00
7658;DHT22;8462;53.156;8.220;2022-09-20T10:16:56;19.70;63.30
7658;DHT22;8462;53.156;8.220;2022-09-20T10:19:36;20.00;60.50
7658;DHT22;8462;53.156;8.220;2022-09-20T10:22:14;20.00;60.60
7658;DHT22;8462;53.156;8.220;2022-09-20T10:24:48;20.00;60.20
7658;DHT22;8462;53.156;8.220;2022-09-20T10:27:34;20.00;60.30
7658;DHT22;8462;53.156;8.220;2022-09-20T10:30:09;19.90;58.40
7658;DHT22;8462;53.156;8.220;2022-09-20T10:32:57;19.70;57.60
7658;DHT22;8462;53.156;8.220;2022-09-20T10:35:45;19.70;57.00
7658;DHT22;8462;53.156;8.220;2022-09-20T10:38:22;19.60;57.40
7658;DHT22;8462;53.156;8.220;2022-09-20T10:41:12;19.30;57.00
7658;DHT22;8462;53.156;8.220;2022-09-20T10:44:07;19.20;58.30
7658;DHT22;8462;53.156;8.220;2022-09-20T10:46:47;19.20;58.60
7658;DHT22;8462;53.156;8.220;2022-09-20T10:49:20;19.20;57.80
7658;DHT22;8462;53.156;8.220;2022-09-20T10:55:01;19.50;57.90
7658;DHT22;8462;53.156;8.220;2022-09-20T11:00:35;19.70;56.40
7658;DHT22;8462;53.156;8.220;2022-09-20T11:03:17;19.70;57.20
7658;DHT22;8462;53.156;8.220;2022-09-20T11:05:57;19.90;58.00
7658;DHT22;8462;53.156;8.220;2022-09-20T11:08:31;20.10;56.00
7658;DHT22;8462;53.156;8.220;2022-09-20T11:11:06;20.20;55.80
7658;DHT22;8462;53.156;8.220;2022-09-20T11:13:41;20.10;55.20
7658;DHT22;8462;53.156;8.220;2022-09-20T11:16:13;19.80;55.70
7658;DHT22;8462;53.156;8.220;2022-09-20T11:18:45;19.30;56.90
7658;DHT22;8462;53.156;8.220;2022-09-20T11:21:16;18.70;58.00
7658;DHT22;8462;53.156;8.220;2022-09-20T11:23:51;18.20;60.10
7658;DHT22;8462;53.156;8.220;2022-09-20T11:26:29;17.70;62.80
7658;DHT22;8462;53.156;8.220;2022-09-20T11:29:04;17.30;65.70
7658;DHT22;8462;53.156;8.220;2022-09-20T11:31:38;16.90;67.80
7658;DHT22;8462;53.156;8.220;2022-09-20T11:34:11;16.70;69.30
7658;DHT22;8462;53.156;8.220;2022-09-20T11:36:45;16.50;71.00
7658;DHT22;8462;53.156;8.220;2022-09-20T11:39:19;16.50;72.40
7658;DHT22;8462;53.156;8.220;2022-09-20T11:41:51;16.50;72.60
7658;DHT22;8462;53.156;8.220;2022-09-20T11:44:20;16.50;73.90
7658;DHT22;8462;53.156;8.220;2022-09-20T11:46:53;16.60;72.60
7658;DHT22;8462;53.156;8.220;2022-09-20T11:49:23;16.70;72.70
7658;DHT22;8462;53.156;8.220;2022-09-20T11:55:16;16.90;74.40
7658;DHT22;8462;53.156;8.220;2022-09-20T11:57:58;17.10;73.60
7658;DHT22;8462;53.156;8.220;2022-09-20T12:00:28;17.10;74.00
7658;DHT22;8462;53.156;8.220;2022-09-20T12:02:55;17.20;74.70
7658;DHT22;8462;53.156;8.220;2022-09-20T12:05:28;17.30;75.90
7658;DHT22;8462;53.156;8.220;2022-09-20T12:08:00;17.50;75.30
7658;DHT22;8462;53.156;8.220;2022-09-20T12:10:30;17.70;75.70
7658;DHT22;8462;53.156;8.220;2022-09-20T12:13:02;17.80;74.20
7658;DHT22;8462;53.156;8.220;2022-09-20T12:15:33;18.00;73.00
7658;DHT22;8462;53.156;8.220;2022-09-20T12:21:05;18.10;71.30
7658;DHT22;8462;53.156;8.220;2022-09-20T12:26:47;18.30;71.20
7658;DHT22;8462;53.156;8.220;2022-09-20T12:32:51;18.60;69.80
7658;DHT22;8462;53.156;8.220;2022-09-20T12:39:01;18.80;69.20
7658;DHT22;8462;53.156;8.220;2022-09-20T12:41:45;18.80;67.60
7658;DHT22;8462;53.156;8.220;2022-09-20T12:44:34;18.90;67.30
7658;DHT22;8462;53.156;8.220;2022-09-20T12:47:04;18.90;66.50
7658;DHT22;8462;53.156;8.220;2022-09-20T12:49:39;18.80;64.90
7658;DHT22;8462;53.156;8.220;2022-09-20T12:52:31;18.70;65.10
7658;DHT22;8462;53.156;8.220;2022-09-20T12:55:35;18.60;65.60
7658;DHT22;8462;53.156;8.220;2022-09-20T12:58:23;18.60;66.30
7658;DHT22;8462;53.156;8.220;2022-09-20T13:01:30;18.60;67.40
7658;DHT22;8462;53.156;8.220;2022-09-20T13:10:19;18.60;66.70
7658;DHT22;8462;53.156;8.220;2022-09-20T13:12:51;18.70;66.50
7658;DHT22;8462;53.156;8.220;2022-09-20T13:15:20;19.00;66.50
7658;DHT22;8462;53.156;8.220;2022-09-20T13:17:52;19.20;65.50
7658;DHT22;8462;53.156;8.220;2022-09-20T13:20:23;19.50;64.90
7658;DHT22;8462;53.156;8.220;2022-09-20T13:22:52;19.70;62.60
7658;DHT22;8462;53.156;8.220;2022-09-20T13:25:20;19.70;61.50
7658;DHT22;8462;53.156;8.220;2022-09-20T13:27:59;19.70;61.00
7658;DHT22;8462;53.156;8.220;2022-09-20T13:30:29;19.50;60.00
7658;DHT22;8462;53.156;8.220;2022-09-20T13:33:16;19.10;59.90
7658;DHT22;8462;53.156;8.220;2022-09-20T13:35:48;18.70;61.80
7658;DHT22;8462;53.156;8.220;2022-09-20T13:38:17;18.40;61.00
7658;DHT22;8462;53.156;8.220;2022-09-20T13:40:50;18.00;61.00
7658;DHT22;8462;53.156;8.220;2022-09-20T13:43:24;17.80;61.00
7658;DHT22;8462;53.156;8.220;2022-09-20T13:45:54;17.40;62.30
7658;DHT22;8462;53.156;8.220;2022-09-20T13:48:25;17.20;63.90
7658;DHT22;8462;53.156;8.220;2022-09-20T13:50:53;17.20;64.40
7658;DHT22;8462;53.156;8.220;2022-09-20T13:53:22;17.20;64.50
7658;DHT22;8462;53.156;8.220;2022-09-20T13:55:50;17.30;64.90
7658;DHT22;8462;53.156;8.220;2022-09-20T13:58:22;17.50;65.50
7658;DHT22;8462;53.156;8.220;2022-09-20T14:00:51;17.70;65.70
7658;DHT22;8462;53.156;8.220;2022-09-20T14:03:20;17.90;63.80
7658;DHT22;8462;53.156;8.220;2022-09-20T14:05:50;18.00;63.50
7658;DHT22;8462;53.156;8.220;2022-09-20T14:08:21;18.10;62.40
7658;DHT22;8462;53.156;8.220;2022-09-20T14:11:04;18.20;61.40
7658;DHT22;8462;53.156;8.220;2022-09-20T14:13:38;18.30;62.20
7658;DHT22;8462;53.156;8.220;2022-09-20T14:16:06;18.10;61.80
7658;DHT22;8462;53.156;8.220;2022-09-20T14:18:34;18.00;63.20
7658;DHT22;8462;53.156;8.220;2022-09-20T14:21:05;18.00;64.20
7658;DHT22;8462;53.156;8.220;2022-09-20T14:23:48;18.10;65.00
7658;DHT22;8462;53.156;8.220;2022-09-20T14:26:24;18.10;65.20
7658;DHT22;8462;53.156;8.220;2022-09-20T14:28:52;18.30;65.40
7658;DHT22;8462;53.156;8.220;2022-09-20T14:31:22;18.30;65.40
7658;DHT22;8462;53.156;8.220;2022-09-20T14:33:52;18.40;64.90
7658;DHT22;8462;53.156;8.220;2022-09-20T14:36:23;18.40;65.20
7658;DHT22;8462;53.156;8.220;2022-09-20T14:38:53;18.30;64.90
7658;DHT22;8462;53.156;8.220;2022-09-20T14:41:25;18.20;64.60
7658;DHT22;8462;53.156;8.220;2022-09-20T14:43:56;18.10;65.00
7658;DHT22;8462;53.156;8.220;2022-09-20T14:46:29;18.10;64.40
7658;DHT22;8462;53.156;8.220;2022-09-20T14:49:17;18.00;65.70
7658;DHT22;8462;53.156;8.220;2022-09-20T14:51:46;17.80;68.00
7658;DHT22;8462;53.156;8.220;2022-09-20T14:54:33;17.60;69.20
7658;DHT22;8462;53.156;8.220;2022-09-20T14:57:01;17.50;71.00
7658;DHT22;8462;53.156;8.220;2022-09-20T14:59:36;17.30;71.50
7658;DHT22;8462;53.156;8.220;2022-09-20T15:02:12;17.30;72.00
7658;DHT22;8462;53.156;8.220;2022-09-20T15:04:40;17.20;72.40
7658;DHT22;8462;53.156;8.220;2022-09-20T15:07:17;17.10;72.50
7658;DHT22;8462;53.156;8.220;2022-09-20T15:09:44;17.00;73.10
7658;DHT22;8462;53.156;8.220;2022-09-20T15:12:12;16.90;73.20
7658;DHT22;8462;53.156;8.220;2022-09-20T15:14:40;16.80;73.40
7658;DHT22;8462;53.156;8.220;2022-09-20T15:17:11;16.70;73.60
7658;DHT22;8462;53.156;8.220;2022-09-20T15:19:39;16.60;73.60
7658;DHT22;8462;53.156;8.220;2022-09-20T15:22:08;16.50;73.60
7658;DHT22;8462;53.156;8.220;2022-09-20T15:24:37;16.40;74.50
7658;DHT22;8462;53.156;8.220;2022-09-20T15:27:04;16.40;74.80
7658;DHT22;8462;53.156;8.220;2022-09-20T15:29:32;16.30;74.90
7658;DHT22;8462;53.156;8.220;2022-09-20T15:31:59;16.30;75.60
7658;DHT22;8462;53.156;8.220;2022-09-20T15:34:27;16.20;76.30
7658;DHT22;8462;53.156;8.220;2022-09-20T15:36:56;16.20;77.00
7658;DHT22;8462;53.156;8.220;2022-09-20T15:39:23;16.20;77.40
7658;DHT22;8462;53.156;8.220;2022-09-20T15:41:53;16.20;77.30
7658;DHT22;8462;53.156;8.220;2022-09-20T15:44:19;16.20;77.00
7658;DHT22;8462;53.156;8.220;2022-09-20T15:46:49;16.20;77.00
7658;DHT22;8462;53.156;8.220;2022-09-20T15:49:17;16.20;77.40
7658;DHT22;8462;53.156;8.220;2022-09-20T15:51:45;16.20;77.30
7658;DHT22;8462;53.156;8.220;2022-09-20T15:54:14;16.10;76.00
7658;DHT22;8462;53.156;8.220;2022-09-20T15:56:41;16.10;75.70
7658;DHT22;8462;53.156;8.220;2022-09-20T15:59:10;16.00;75.90
7658;DHT22;8462;53.156;8.220;2022-09-20T16:01:41;16.10;75.90
7658;DHT22;8462;53.156;8.220;2022-09-20T16:04:09;16.10;75.70
7658;DHT22;8462;53.156;8.220;2022-09-20T16:06:38;16.10;75.50
7658;DHT22;8462;53.156;8.220;2022-09-20T16:09:07;16.10;75.20
7658;DHT22;8462;53.156;8.220;2022-09-20T16:11:34;16.10;74.70
7658;DHT22;8462;53.156;8.220;2022-09-20T16:14:02;16.10;74.40
7658;DHT22;8462;53.156;8.220;2022-09-20T16:16:31;16.10;74.10
7658;DHT22;8462;53.156;8.220;2022-09-20T16:19:00;16.10;73.90
7658;DHT22;8462;53.156;8.220;2022-09-20T16:21:46;16.00;73.60
7658;DHT22;8462;53.156;8.220;2022-09-20T16:24:14;16.00;74.10
7658;DHT22;8462;53.156;8.220;2022-09-20T16:26:42;15.90;74.30
7658;DHT22;8462;53.156;8.220;2022-09-20T16:29:09;16.00;74.80
7658;DHT22;8462;53.156;8.220;2022-09-20T16:31:39;16.00;74.90
7658;DHT22;8462;53.156;8.220;2022-09-20T16:34:11;16.00;75.40
7658;DHT22;8462;53.156;8.220;2022-09-20T16:36:39;16.00;75.50
7658;DHT22;8462;53.156;8.220;2022-09-20T16:39:08;16.00;75.70
7658;DHT22;8462;53.156;8.220;2022-09-20T16:41:36;16.00;75.70
7658;DHT22;8462;53.156;8.220;2022-09-20T16:44:03;16.00;76.10
7658;DHT22;8462;53.156;8.220;2022-09-20T16:46:31;16.00;75.80
7658;DHT22;8462;53.156;8.220;2022-09-20T16:49:01;16.00;76.00
7658;DHT22;8462;53.156;8.220;2022-09-20T16:51:30;15.90;76.10
7658;DHT22;8462;53.156;8.220;2022-09-20T16:54:00;15.90;76.10
7658;DHT22;8462;53.156;8.220;2022-09-20T16:56:29;15.90;76.60
7658;DHT22;8462;53.156;8.220;2022-09-20T16:58:58;15.80;77.00
7658;DHT22;8462;53.156;8.220;2022-09-20T17:01:26;15.80;77.20
7658;DHT22;8462;53.156;8.220;2022-09-20T17:04:01;15.70;77.20
7658;DHT22;8462;53.156;8.220;2022-09-20T17:06:30;15.70;77.00
7658;DHT22;8462;53.156;8.220;2022-09-20T17:08:59;15.60;77.00
7658;DHT22;8462;53.156;8.220;2022-09-20T17:11:28;15.60;77.40
7658;DHT22;8462;53.156;8.220;2022-09-20T17:13:56;15.50;77.30
7658;DHT22;8462;53.156;8.220;2022-09-20T17:16:25;15.50;77.20
7658;DHT22;8462;53.156;8.220;2022-09-20T17:18:54;15.40;78.00
7658;DHT22;8462;53.156;8.220;2022-09-20T17:21:24;15.40;77.90
7658;DHT22;8462;53.156;8.220;2022-09-20T17:23:52;15.30;79.30
7658;DHT22;8462;53.156;8.220;2022-09-20T17:26:25;15.20;78.70
7658;DHT22;8462;53.156;8.220;2022-09-20T17:28:54;15.20;78.60
7658;DHT22;8462;53.156;8.220;2022-09-20T17:31:24;15.10;78.70
7658;DHT22;8462;53.156;8.220;2022-09-20T17:33:53;15.00;79.50
7658;DHT22;8462;53.156;8.220;2022-09-20T17:36:27;14.90;80.30
7658;DHT22;8462;53.156;8.220;2022-09-20T17:38:56;14.80;80.40
7658;DHT22;8462;53.156;8.220;2022-09-20T17:41:25;14.80;80.70